Snel-info
Kleurcode:
Groen
Er mag gevlogen worden.
Laatste update: 17/11/2017
Kleurcode informatie

Grasmaaien:

Geen maaibeurten gepland.

Volgende vliegdagen:

  • ma 25 december : Kerstmis
  • di 26 december : 2e Kerstdag
  • wo 27 december : Brugdag
Alle extra vliegdagen

Weersituatie op PMF:

5_Jets_over_Pampa_2014_159_DirkVL.jpg

Huidige weersituatie

Huidig weerbeeld in Kleine Brogel, Belgium
Huidige wind in Kleine Brogel, Belgium

Dit is het bericht voor Kleine Brogel, Belgium en werd 26 minuten geleden gemaakt.
De wind waaide met een snelheid van 1.5 meter per seconde (5.6 km/h) uit het westen (260°).
De temperatuur was 8 °C. De atmosferische druk was 1011 hPa. De relative luchtvochtigheid was 93.4%.
Het was half bewolkt op een hoogte van 366 meter en zwaar bewolkt op een hoogte van 579 meter. Het algemene zicht was meer dan 10 kilometer.

De onbewerkte METAR gegevens waarop dit bericht is gebaseerd zijn:
EBBL 241225Z 26003KT 9999 SCT012 BKN019 08/07 Q1011 GRN GRN BECMG WHT


Opmerking:
De wind blijkt op PMF meestal iets krachtiger te waaien dan op Kleine Brogel. De windrichting klopt dan weer wel.




KMI

De weersvoorspellingen van het KMI vind je via deze link.


Buienradar

Op www.buienradar.nl kun je zelf zien waar het nu en de komende uren regent.